Time;durP1;ratioP1;P1;durP2;ratioP2;P2;SDS_P1;SDS_P2;PMS_P1;PMS_P2;Temp;Humidity;BMP_temperature;BMP_pressure;BME280_temperature;BME280_humidity;BME280_pressure;Samples;Min_cycle;Max_cycle;Signal;HPM_P1;HPM_P2
2021/12/31 00:00:46;;;;;;;17.08;8.20;;;;;;;12.14;71.38;98558.97;4487958;32;20487;-76
2021/12/31 00:03:16;;;;;;;17.87;8.70;;;;;;;11.95;71.76;98555.44;4488072;32;20080;-76
2021/12/31 00:05:44;;;;;;;17.85;9.68;;;;;;;12.11;71.42;98564.25;4487566;32;20175;-76
2021/12/31 00:08:11;;;;;;;20.12;10.18;;;;;;;12.01;71.70;98563.75;4487858;32;20581;-76
2021/12/31 00:10:39;;;;;;;20.00;8.27;;;;;;;11.95;72.28;98558.84;4488000;32;20152;-76
2021/12/31 00:13:06;;;;;;;22.62;10.30;;;;;;;10.55;77.75;98551.19;4487365;32;20485;-76
2021/12/31 00:15:33;;;;;;;21.73;9.50;;;;;;;11.05;76.59;98554.53;4487865;32;20092;-77
2021/12/31 00:18:00;;;;;;;20.05;10.13;;;;;;;10.90;76.60;98555.94;4487700;32;20099;-77
2021/12/31 00:20:27;;;;;;;20.12;10.07;;;;;;;10.84;77.71;98538.06;4473311;32;20118;-77
2021/12/31 00:23:02;;;;;;;21.27;10.00;;;;;;;10.61;79.20;98548.38;4487890;32;20140;-77
2021/12/31 00:25:31;;;;;;;20.00;9.77;;;;;;;11.41;76.22;98543.72;4487788;32;20102;-77
2021/12/31 00:27:59;;;;;;;18.77;9.20;;;;;;;11.32;76.13;98542.34;4473148;32;20124;-77
2021/12/31 00:30:26;;;;;;;18.37;9.85;;;;;;;11.34;76.22;98543.13;4487860;32;20144;-77
2021/12/31 00:32:53;;;;;;;18.92;9.60;;;;;;;11.43;76.02;98539.34;4486759;32;20081;-77
2021/12/31 00:35:20;;;;;;;22.15;10.82;;;;;;;11.50;75.63;98545.97;4487771;32;20092;-77
2021/12/31 00:37:47;;;;;;;20.98;10.75;;;;;;;11.93;73.81;98562.41;4487510;32;20120;-77
2021/12/31 00:40:16;;;;;;;21.62;11.55;;;;;;;11.75;74.46;98562.19;4487431;32;20096;-77
2021/12/31 00:42:44;;;;;;;19.27;9.93;;;;;;;11.61;74.77;98568.81;4487763;32;20147;-77
2021/12/31 00:45:13;;;;;;;20.27;9.80;;;;;;;11.79;74.28;98574.13;4487568;32;20110;-77
2021/12/31 00:47:42;;;;;;;23.02;9.32;;;;;;;12.07;73.38;98573.88;4487381;32;20088;-77
2021/12/31 00:50:11;;;;;;;19.65;10.00;;;;;;;12.32;72.65;98571.13;4487839;32;20160;-77
2021/12/31 00:52:38;;;;;;;17.73;9.45;;;;;;;12.57;72.42;98565.78;4488143;32;20105;-77
2021/12/31 00:55:05;;;;;;;18.00;7.47;;;;;;;12.77;71.43;98564.94;4487666;32;20477;-77
2021/12/31 00:57:33;;;;;;;15.15;6.62;;;;;;;13.56;69.78;98568.31;4487944;32;20135;-76
2021/12/31 01:00:00;;;;;;;15.45;7.18;;;;;;;13.74;71.21;98564.84;4487619;32;20118;-77
2021/12/31 01:02:29;;;;;;;9.73;4.10;;;;;;;13.80;71.49;98558.53;4487406;32;20108;-77
2021/12/31 01:04:56;;;;;;;9.63;3.72;;;;;;;12.81;77.91;98563.03;4487562;32;20106;-77
2021/12/31 01:07:23;;;;;;;8.73;3.58;;;;;;;13.23;79.06;98558.56;4487671;32;20080;-77
2021/12/31 01:09:51;;;;;;;10.48;3.90;;;;;;;14.32;74.53;98563.78;4486943;32;20122;-77
2021/12/31 01:12:18;;;;;;;9.35;3.62;;;;;;;13.60;77.37;98556.84;4487458;32;20110;-77
2021/12/31 01:20:11;;;;;;;9.45;3.65;;;;;;;14.05;75.89;98556.44;4487644;32;20116;-77
2021/12/31 01:22:38;;;;;;;9.73;3.62;;;;;;;13.93;76.63;98561.34;4473253;32;20088;-77
2021/12/31 01:25:06;;;;;;;9.70;3.58;;;;;;;14.70;72.99;98554.94;4487377;32;20139;-76
2021/12/31 01:27:34;;;;;;;8.77;3.55;;;;;;;14.35;74.85;98558.41;4487497;32;20438;-76
2021/12/31 01:30:01;;;;;;;11.32;3.67;;;;;;;14.84;73.45;98556.81;4472699;32;20097;-77
2021/12/31 01:32:30;;;;;;;7.22;3.00;;;;;;;14.17;76.45;98550.66;4487576;32;20152;-77
2021/12/31 01:34:57;;;;;;;7.75;3.10;;;;;;;14.10;77.61;98559.63;4487164;32;20131;-77
2021/12/31 01:37:24;;;;;;;8.05;2.92;;;;;;;14.14;78.25;98562.91;4472648;32;20085;-77
2021/12/31 01:39:51;;;;;;;10.88;3.37;;;;;;;15.36;72.74;98561.84;4487097;32;20100;-77
2021/12/31 01:42:24;;;;;;;8.20;3.12;;;;;;;14.84;74.84;98575.00;4487165;32;20140;-77
2021/12/31 01:44:58;;;;;;;11.10;3.40;;;;;;;14.71;75.10;98568.75;4485404;32;20139;-77
2021/12/31 01:48:20;;;;;;;8.13;3.17;;;;;;;15.43;72.11;98567.56;4487211;32;20419;-77
2021/12/31 01:50:15;;;;;;;8.60;3.50;;;;;;;14.99;74.07;98570.75;4469195;32;20179;-77
2021/12/31 01:52:42;;;;;;;8.68;3.55;;;;;;;15.51;71.39;98578.38;4487256;32;20160;-77
2021/12/31 01:55:11;;;;;;;8.07;3.22;;;;;;;15.89;69.45;98571.09;4473105;32;20094;-77
2021/12/31 01:57:42;;;;;;;8.07;3.33;;;;;;;15.43;70.52;98573.63;4486574;32;20160;-77
2021/12/31 02:00:10;;;;;;;8.50;3.50;;;;;;;16.15;68.25;98569.63;4486740;32;20581;-77
2021/12/31 02:02:37;;;;;;;8.63;3.85;;;;;;;16.65;65.53;98582.31;4472929;32;20122;-77
2021/12/31 02:05:05;;;;;;;10.13;4.03;;;;;;;16.38;65.35;98576.97;4486445;32;20092;-77
2021/12/31 02:07:37;;;;;;;8.75;3.92;;;;;;;15.73;68.09;98591.91;4486995;32;20076;-77
2021/12/31 02:10:05;;;;;;;8.65;3.60;;;;;;;16.24;66.10;98592.53;4486605;32;20164;-77
2021/12/31 02:12:32;;;;;;;10.02;3.70;;;;;;;16.07;66.18;98590.06;4486304;32;20110;-77
2021/12/31 02:14:59;;;;;;;10.20;4.40;;;;;;;15.91;66.79;98582.28;4486613;32;20106;-77
2021/12/31 02:17:26;;;;;;;7.60;3.22;;;;;;;15.86;66.53;98586.91;4486836;32;20085;-77
2021/12/31 02:19:56;;;;;;;10.00;4.20;;;;;;;16.12;65.17;98578.44;4486358;32;20092;-77
2021/12/31 02:22:27;;;;;;;8.65;3.90;;;;;;;15.53;67.20;98584.34;4472692;32;20489;-77
2021/12/31 02:24:57;;;;;;;8.43;3.83;;;;;;;16.61;63.36;98578.25;4486696;32;20115;-77
2021/12/31 02:27:24;;;;;;;10.60;4.72;;;;;;;16.31;63.36;98573.03;4472215;32;20099;-77
2021/12/31 02:29:51;;;;;;;9.88;4.28;;;;;;;16.65;61.21;98591.91;4486275;32;20111;-77
2021/12/31 02:32:18;;;;;;;9.07;4.25;;;;;;;16.41;61.45;98579.41;4486396;32;20097;-77
2021/12/31 02:34:46;;;;;;;10.07;4.32;;;;;;;16.18;61.85;98578.13;4472482;32;20406;-77
2021/12/31 02:37:14;;;;;;;9.93;4.37;;;;;;;15.25;65.28;98579.78;4486375;32;20175;-77
2021/12/31 02:39:43;;;;;;;10.68;4.70;;;;;;;14.95;66.85;98587.44;4485896;32;20104;-76
2021/12/31 02:42:10;;;;;;;10.60;4.35;;;;;;;14.83;66.52;98575.06;4486447;32;20156;-77
2021/12/31 02:44:38;;;;;;;10.07;4.53;;;;;;;15.54;62.62;98583.44;4486173;32;20083;-76
2021/12/31 02:47:06;;;;;;;10.57;4.65;;;;;;;15.23;64.18;98577.28;4485797;32;20472;-77
2021/12/31 02:49:38;;;;;;;10.55;4.60;;;;;;;15.43;62.87;98567.56;4486183;32;20128;-77
2021/12/31 02:52:07;;;;;;;10.43;4.03;;;;;;;14.69;65.57;98568.84;4486429;32;20159;-77
2021/12/31 02:54:37;;;;;;;9.00;3.85;;;;;;;15.42;62.53;98565.88;4485858;32;20170;-77
2021/12/31 02:57:06;;;;;;;10.45;3.95;;;;;;;15.96;61.10;98564.66;4473603;32;20064;-77
2021/12/31 02:59:36;;;;;;;8.93;3.40;;;;;;;16.36;58.95;98565.78;4474385;32;20159;-77
2021/12/31 03:02:06;;;;;;;8.80;3.55;;;;;;;14.94;65.57;98557.19;4488200;32;20088;-77
2021/12/31 03:04:35;;;;;;;9.27;3.17;;;;;;;14.97;64.90;98564.81;4488314;32;20404;-77
2021/12/31 03:07:04;;;;;;;8.95;3.37;;;;;;;14.97;65.88;98573.44;4488358;32;20072;-77
2021/12/31 03:09:36;;;;;;;7.55;3.28;;;;;;;15.41;64.23;98569.41;4487888;32;20131;-77
2021/12/31 03:12:04;;;;;;;8.13;3.50;;;;;;;16.22;61.53;98564.91;4474172;32;20131;-77
2021/12/31 03:14:31;;;;;;;8.48;3.45;;;;;;;16.61;58.99;98574.78;4487982;32;20142;-77
2021/12/31 03:16:59;;;;;;;8.05;3.40;;;;;;;16.31;58.70;98567.00;4488216;32;20098;-77
2021/12/31 03:19:26;;;;;;;6.87;3.08;;;;;;;15.22;62.24;98564.38;4474140;32;20549;-77
2021/12/31 03:21:53;;;;;;;8.10;3.10;;;;;;;16.14;59.73;98560.97;4488266;32;20119;-77
2021/12/31 03:24:20;;;;;;;8.07;3.12;;;;;;;15.81;60.80;98560.28;4488339;32;20103;-77
2021/12/31 03:26:48;;;;;;;8.60;3.42;;;;;;;16.17;60.00;98557.38;4488265;32;20097;-77
2021/12/31 03:29:15;;;;;;;8.85;4.47;;;;;;;15.98;60.22;98552.37;4487992;32;20434;-77
2021/12/31 03:31:42;;;;;;;7.53;2.90;;;;;;;15.36;61.76;98556.66;4488500;32;20144;-77
2021/12/31 03:34:10;;;;;;;8.68;3.12;;;;;;;15.22;62.90;98554.81;4488299;32;20147;-77
2021/12/31 03:36:37;;;;;;;8.90;3.30;;;;;;;15.86;60.81;98561.72;4487843;32;20140;-77
2021/12/31 03:39:04;;;;;;;7.55;3.05;;;;;;;14.99;63.24;98555.16;4488107;32;20116;-77
2021/12/31 03:41:31;;;;;;;6.90;2.87;;;;;;;14.30;65.38;98548.28;4488328;32;20439;-77
2021/12/31 03:43:58;;;;;;;7.75;2.97;;;;;;;14.82;63.92;98550.88;4487903;32;20163;-77
2021/12/31 03:46:25;;;;;;;7.72;3.05;;;;;;;15.12;62.63;98550.19;4488313;32;20136;-77
2021/12/31 03:48:53;;;;;;;8.75;3.58;;;;;;;15.28;61.31;98549.25;4488230;32;20122;-77
2021/12/31 03:51:20;;;;;;;11.15;4.50;;;;;;;14.26;62.75;98545.94;4487873;32;20527;-77
2021/12/31 03:53:46;;;;;;;11.93;4.82;;;;;;;14.15;60.97;98539.50;4488075;32;20147;-77
2021/12/31 03:56:14;;;;;;;11.30;4.75;;;;;;;13.25;63.25;98555.91;4488067;32;20076;-77
2021/12/31 03:58:41;;;;;;;10.68;4.78;;;;;;;13.08;64.12;98553.19;4487855;32;20110;-77
2021/12/31 04:01:08;;;;;;;10.68;4.82;;;;;;;13.30;64.08;98559.16;4488014;32;20160;-77
2021/12/31 04:03:36;;;;;;;10.77;4.35;;;;;;;13.55;62.85;98554.50;4487697;32;20088;-76
2021/12/31 04:06:03;;;;;;;11.32;4.80;;;;;;;13.52;63.08;98553.81;4488001;32;20128;-77
2021/12/31 04:08:30;;;;;;;11.27;4.47;;;;;;;13.99;61.21;98553.28;4487033;32;20123;-77
2021/12/31 04:10:57;;;;;;;11.15;4.25;;;;;;;13.73;62.76;98549.38;4487574;32;20147;-77
2021/12/31 04:13:23;;;;;;;10.20;4.37;;;;;;;13.95;62.71;98551.78;4487648;32;20183;-77
2021/12/31 04:15:50;;;;;;;10.38;4.30;;;;;;;13.59;64.35;98550.84;4487849;32;20573;-77
2021/12/31 04:18:17;;;;;;;10.15;4.50;;;;;;;13.77;64.02;98549.12;4487430;32;20126;-77
2021/12/31 04:20:45;;;;;;;10.20;4.05;;;;;;;13.81;63.37;98542.03;4488060;32;20145;-77
2021/12/31 04:23:28;;;;;;;9.27;4.00;;;;;;;13.90;63.15;98549.38;4487868;32;20143;-77
2021/12/31 04:25:56;;;;;;;9.40;3.78;;;;;;;14.36;61.47;98557.53;4487972;32;20096;-77
2021/12/31 04:28:25;;;;;;;11.18;4.32;;;;;;;13.70;63.56;98558.09;4488215;32;20433;-77
2021/12/31 04:30:52;;;;;;;9.50;4.15;;;;;;;13.55;64.42;98556.25;4488367;32;20106;-77
2021/12/31 04:33:18;;;;;;;10.20;4.20;;;;;;;13.86;63.39;98560.84;4487849;32;20098;-76
2021/12/31 04:35:46;;;;;;;9.43;4.30;;;;;;;13.73;63.46;98557.16;4487965;32;20156;-76
2021/12/31 04:38:13;;;;;;;9.75;4.07;;;;;;;13.93;62.77;98550.97;4487639;32;20132;-76
2021/12/31 04:40:40;;;;;;;10.80;4.25;;;;;;;13.82;63.16;98552.37;4473239;32;20175;-77
2021/12/31 04:43:07;;;;;;;9.23;4.00;;;;;;;14.66;60.99;98548.19;4487713;32;20124;-77
2021/12/31 04:45:34;;;;;;;9.02;3.95;;;;;;;14.34;62.33;98554.16;4487337;32;20080;-77
2021/12/31 04:48:02;;;;;;;9.88;3.72;;;;;;;14.37;61.38;98551.41;4487854;32;20112;-77
2021/12/31 04:50:29;;;;;;;10.95;4.15;;;;;;;14.47;60.54;98555.28;4487705;32;20148;-77
2021/12/31 04:52:56;;;;;;;10.88;4.45;;;;;;;13.83;61.54;98554.03;4487307;32;20135;-77
2021/12/31 04:55:23;;;;;;;10.93;4.50;;;;;;;13.37;62.88;98559.69;4487510;32;20163;-77
2021/12/31 04:57:50;;;;;;;10.25;4.68;;;;;;;14.21;59.60;98553.91;4487561;32;20149;-77
2021/12/31 05:00:17;;;;;;;10.80;5.32;;;;;;;14.03;59.93;98560.84;4487314;32;20513;-76
2021/12/31 05:02:45;;;;;;;11.60;5.25;;;;;;;13.16;62.63;98566.66;4473673;32;20064;-76
2021/12/31 05:05:12;;;;;;;9.98;4.72;;;;;;;12.98;63.73;98570.91;4487642;32;20080;-76
2021/12/31 05:07:39;;;;;;;11.07;4.80;;;;;;;12.90;64.15;98568.66;4487404;32;20096;-76
2021/12/31 05:10:07;;;;;;;15.10;6.40;;;;;;;12.53;65.61;98565.94;4487583;32;20441;-77
2021/12/31 05:12:37;;;;;;;13.75;6.05;;;;;;;12.62;65.93;98575.91;4487486;32;20088;-77
2021/12/31 05:15:09;;;;;;;15.93;7.65;;;;;;;12.80;63.56;98574.31;4473366;32;20102;-77
2021/12/31 05:17:37;;;;;;;11.63;5.87;;;;;;;13.26;62.01;98578.31;4487392;32;20088;-77
2021/12/31 05:20:05;;;;;;;14.05;6.07;;;;;;;13.63;60.99;98574.06;4487156;32;20151;-77
2021/12/31 05:22:33;;;;;;;13.98;5.93;;;;;;;13.31;61.48;98571.19;4473279;32;20105;-77
2021/12/31 05:25:00;;;;;;;12.90;5.57;;;;;;;12.79;63.32;98585.56;4487274;32;20144;-76
2021/12/31 05:27:27;;;;;;;12.98;5.43;;;;;;;13.16;62.85;98587.38;4487476;32;20132;-76
2021/12/31 05:29:54;;;;;;;11.80;5.45;;;;;;;13.00;63.31;98577.69;4487070;32;20108;-77
2021/12/31 05:32:21;;;;;;;12.65;5.50;;;;;;;12.78;64.10;98595.09;4487440;32;20143;-76
2021/12/31 05:34:48;;;;;;;13.57;5.55;;;;;;;12.69;64.20;98590.28;4487019;32;20119;-76
2021/12/31 05:37:15;;;;;;;12.75;4.07;;;;;;;12.57;66.20;98585.66;4487320;32;20124;-76
2021/12/31 05:39:44;;;;;;;4.65;1.85;;;;;;;13.62;65.01;98586.19;4487043;32;20241;-76
2021/12/31 05:42:11;;;;;;;4.05;1.67;;;;;;;13.88;66.25;98587.53;4486975;32;20084;-76
2021/12/31 05:44:38;;;;;;;5.60;1.77;;;;;;;13.70;67.37;98578.84;4487184;32;20072;-76
2021/12/31 05:47:06;;;;;;;5.93;1.90;;;;;;;14.05;66.18;98584.97;4487333;32;20084;-76
2021/12/31 05:49:34;;;;;;;6.35;2.08;;;;;;;14.21;65.80;98586.81;4472809;32;20158;-76
2021/12/31 05:52:00;;;;;;;4.75;1.67;;;;;;;14.30;65.04;98586.38;4487206;32;20084;-76
2021/12/31 05:54:27;;;;;;;8.25;2.08;;;;;;;14.15;65.81;98583.63;4486902;32;20152;-76
2021/12/31 05:56:55;;;;;;;5.30;2.00;;;;;;;14.61;64.47;98590.91;4486979;32;20151;-76
2021/12/31 05:59:22;;;;;;;4.22;1.80;;;;;;;14.77;64.01;98597.84;4487106;32;20108;-76
2021/12/31 06:01:48;;;;;;;4.20;1.90;;;;;;;14.88;63.61;98609.44;4487199;32;20076;-76
2021/12/31 06:04:16;;;;;;;7.65;2.75;;;;;;;15.10;62.75;98610.03;4486482;32;20114;-76
2021/12/31 06:06:44;;;;;;;8.25;3.45;;;;;;;14.87;62.54;98613.81;4486810;32;20097;-76
2021/12/31 06:09:14;;;;;;;9.95;4.75;;;;;;;14.04;62.88;98609.25;4472656;32;20172;-76
2021/12/31 06:11:41;;;;;;;11.88;5.05;;;;;;;13.62;61.87;98619.88;4486415;32;20084;-77
2021/12/31 06:14:10;;;;;;;11.85;5.37;;;;;;;13.95;61.39;98625.25;4486651;32;20526;-77
2021/12/31 06:16:42;;;;;;;12.82;5.32;;;;;;;13.91;60.75;98615.91;4486652;32;20119;-76
2021/12/31 06:19:11;;;;;;;11.30;5.03;;;;;;;13.27;63.31;98637.00;4486683;32;20451;-76
2021/12/31 06:21:40;;;;;;;11.77;5.15;;;;;;;13.01;65.42;98630.34;4486615;32;20088;-76
2021/12/31 06:24:07;;;;;;;12.60;5.25;;;;;;;13.48;63.44;98632.62;4486164;32;20120;-76
2021/12/31 06:26:35;;;;;;;12.70;5.82;;;;;;;13.00;66.21;98645.06;4472646;32;20495;-76
2021/12/31 06:29:03;;;;;;;12.90;5.78;;;;;;;12.81;64.74;98635.53;4486567;32;20101;-76
2021/12/31 06:31:30;;;;;;;13.77;6.50;;;;;;;12.94;64.34;98641.88;4486923;32;20091;-77
2021/12/31 06:33:57;;;;;;;13.68;6.35;;;;;;;13.08;62.97;98651.63;4474634;32;20076;-77
2021/12/31 06:36:24;;;;;;;13.82;6.15;;;;;;;13.22;60.99;98639.81;4488566;32;20491;-76
2021/12/31 06:38:51;;;;;;;12.50;5.25;;;;;;;13.30;61.32;98648.09;4488155;32;20409;-76
2021/12/31 06:41:20;;;;;;;10.30;4.53;;;;;;;13.74;61.04;98649.59;4488715;32;20097;-77
2021/12/31 06:43:48;;;;;;;10.90;5.00;;;;;;;14.29;59.57;98647.00;4488583;32;20132;-76
2021/12/31 06:46:15;;;;;;;10.68;4.40;;;;;;;13.51;60.92;98643.72;4488219;32;20065;-77
2021/12/31 06:48:42;;;;;;;12.20;4.80;;;;;;;14.21;61.27;98652.53;4488558;32;20092;-77
2021/12/31 06:51:10;;;;;;;10.38;4.32;;;;;;;13.71;63.00;98652.31;4488566;32;20419;-77
2021/12/31 06:53:38;;;;;;;10.15;4.25;;;;;;;14.65;60.59;98652.16;4488257;32;20085;-77
2021/12/31 06:56:05;;;;;;;9.77;3.97;;;;;;;14.17;62.80;98646.66;4488290;32;20152;-76
2021/12/31 06:58:32;;;;;;;11.00;4.40;;;;;;;14.92;59.23;98645.59;4488315;32;20100;-76
2021/12/31 07:00:59;;;;;;;9.55;4.00;;;;;;;13.64;63.72;98654.34;4488281;32;20092;-76
2021/12/31 07:03:26;;;;;;;9.02;3.78;;;;;;;14.23;62.58;98645.53;4488381;32;20149;-77
2021/12/31 07:05:53;;;;;;;9.35;4.25;;;;;;;14.35;62.06;98649.28;4488067;32;20567;-77
2021/12/31 07:08:24;;;;;;;8.88;3.75;;;;;;;14.21;62.19;98636.13;4474839;32;20108;-77
2021/12/31 07:10:51;;;;;;;9.77;3.83;;;;;;;14.56;61.54;98650.03;4474372;32;20100;-77
2021/12/31 07:13:18;;;;;;;9.05;3.87;;;;;;;14.65;61.53;98649.56;4487716;32;20096;-77
2021/12/31 07:15:49;;;;;;;9.70;3.50;;;;;;;14.86;61.85;98663.25;4488367;32;20109;-77
2021/12/31 07:18:17;;;;;;;8.40;3.90;;;;;;;15.85;57.86;98653.72;4488435;32;20115;-77
2021/12/31 07:20:45;;;;;;;8.23;3.62;;;;;;;15.88;57.96;98660.50;4488059;32;20166;-77
2021/12/31 07:23:15;;;;;;;9.80;3.60;;;;;;;16.40;56.37;98661.06;4488353;32;20084;-77
2021/12/31 07:25:43;;;;;;;9.57;3.40;;;;;;;15.86;58.61;98657.16;4488263;32;20486;-77
2021/12/31 07:28:12;;;;;;;8.00;3.50;;;;;;;16.25;57.54;98672.31;4487837;32;20149;-77
2021/12/31 07:30:39;;;;;;;7.70;3.47;;;;;;;17.02;55.30;98674.03;4474086;32;20240;-76
2021/12/31 07:33:14;;;;;;;6.65;2.87;;;;;;;17.00;55.42;98668.03;4474162;32;20365;-76
2021/12/31 07:35:41;;;;;;;8.48;3.15;;;;;;;17.23;54.91;98672.75;4487835;32;20120;-77
2021/12/31 07:38:11;;;;;;;7.32;3.00;;;;;;;17.69;53.48;98672.59;4488098;32;20088;-77
2021/12/31 07:40:39;;;;;;;7.72;3.20;;;;;;;17.77;53.16;98675.56;4488266;32;20174;-77
2021/12/31 07:43:07;;;;;;;13.48;5.57;;;;;;;18.16;51.80;98684.44;4487847;32;20119;-77
2021/12/31 07:45:35;;;;;;;11.77;4.72;;;;;;;17.56;51.47;98689.91;4487951;32;20101;-77
2021/12/31 07:48:03;;;;;;;8.25;3.42;;;;;;;17.32;52.74;98668.72;4487681;32;20104;-77
2021/12/31 07:50:30;;;;;;;9.20;3.90;;;;;;;17.04;53.65;98667.78;4487983;32;20151;-77
2021/12/31 07:52:57;;;;;;;9.07;4.00;;;;;;;17.19;53.59;98671.25;4488085;32;20127;-77
2021/12/31 07:55:24;;;;;;;10.30;3.50;;;;;;;17.32;52.80;98676.56;4487503;32;20104;-77
2021/12/31 07:57:52;;;;;;;8.38;3.50;;;;;;;17.51;53.14;98686.72;4487897;32;20148;-77
2021/12/31 08:00:19;;;;;;;9.93;3.90;;;;;;;17.57;53.10;98700.25;4473851;32;20178;-77
2021/12/31 08:02:46;;;;;;;8.80;3.60;;;;;;;17.83;52.59;98684.78;4488232;32;20100;-77
2021/12/31 08:05:13;;;;;;;8.73;3.40;;;;;;;17.83;52.60;98685.62;4488648;32;20104;-77
2021/12/31 08:07:40;;;;;;;6.28;2.90;;;;;;;17.86;52.55;98687.19;4488596;32;20111;-76
2021/12/31 08:10:08;;;;;;;8.60;3.62;;;;;;;17.67;53.05;98684.88;4487890;32;20506;-77
2021/12/31 08:12:54;;;;;;;8.45;3.03;;;;;;;18.86;50.21;98698.19;4475906;32;20138;-77
2021/12/31 08:15:21;;;;;;;7.90;3.15;;;;;;;19.49;48.66;98697.41;4488049;32;20137;-77
2021/12/31 08:17:48;;;;;;;7.32;2.90;;;;;;;19.83;47.71;98697.72;4487604;32;20505;-77
2021/12/31 08:20:15;;;;;;;6.28;2.47;;;;;;;18.96;50.07;98693.19;4487838;32;20410;-77
2021/12/31 08:22:42;;;;;;;6.03;2.50;;;;;;;19.42;48.97;98704.00;4473718;32;20151;-76
2021/12/31 08:25:09;;;;;;;5.78;2.58;;;;;;;19.86;47.68;98705.34;4487406;32;20096;-77
2021/12/31 08:27:39;;;;;;;5.80;2.22;;;;;;;19.98;47.66;98699.25;4487955;32;20343;-77
2021/12/31 08:30:08;;;;;;;6.50;2.47;;;;;;;20.61;45.71;98706.06;4487565;32;20095;-77
2021/12/31 08:32:36;;;;;;;7.55;2.65;;;;;;;20.54;45.53;98704.87;4487815;32;20106;-77
2021/12/31 08:35:04;;;;;;;7.62;3.10;;;;;;;20.11;46.82;98705.31;4473582;32;20429;-77
2021/12/31 08:37:31;;;;;;;6.47;2.70;;;;;;;19.96;47.46;98705.53;4487456;32;20435;-77
2021/12/31 08:39:58;;;;;;;5.60;2.45;;;;;;;20.59;45.78;98704.53;4487642;32;20159;-77
2021/12/31 08:42:25;;;;;;;7.15;2.45;;;;;;;21.30;44.14;98708.84;4487915;32;20088;-77
2021/12/31 08:44:53;;;;;;;6.62;2.50;;;;;;;20.98;44.42;98704.19;4487461;32;20452;-77
2021/12/31 08:47:27;;;;;;;7.78;3.03;;;;;;;20.06;46.79;98720.50;4487911;32;20103;-77
2021/12/31 08:49:54;;;;;;;6.30;2.40;;;;;;;20.72;45.42;98721.00;4487677;32;20152;-77
2021/12/31 08:52:21;;;;;;;7.93;3.10;;;;;;;20.93;45.28;98723.84;4487299;32;20181;-77
2021/12/31 08:54:48;;;;;;;7.30;2.60;;;;;;;20.76;45.18;98720.69;4486967;32;20112;-77
2021/12/31 08:57:15;;;;;;;9.70;3.60;;;;;;;20.88;44.89;98724.19;4487577;32;20167;-77
2021/12/31 08:59:43;;;;;;;6.12;2.12;;;;;;;21.08;44.91;98720.94;4472861;32;20175;-77
2021/12/31 09:02:11;;;;;;;5.87;2.12;;;;;;;20.43;45.71;98725.78;4487541;32;20089;-77
2021/12/31 09:04:38;;;;;;;7.10;2.03;;;;;;;20.21;46.74;98722.06;4487460;32;20096;-77
2021/12/31 09:07:05;;;;;;;6.35;2.53;;;;;;;20.33;46.45;98722.94;4487251;32;20136;-77
2021/12/31 09:09:32;;;;;;;6.65;2.30;;;;;;;21.21;44.60;98730.50;4487410;32;20096;-77
2021/12/31 09:11:59;;;;;;;7.22;2.58;;;;;;;21.17;44.34;98732.53;4487241;32;20112;-77
2021/12/31 09:14:26;;;;;;;4.90;2.12;;;;;;;21.02;44.90;98733.66;4487175;32;20195;-77
2021/12/31 09:16:53;;;;;;;5.78;2.25;;;;;;;21.41;44.22;98732.47;4487547;32;20112;-77
2021/12/31 09:19:21;;;;;;;4.22;1.70;;;;;;;20.55;46.37;98742.41;4487034;32;20102;-77
2021/12/31 09:21:49;;;;;;;5.28;1.92;;;;;;;19.79;48.40;98733.75;4487789;32;20160;-77
2021/12/31 09:24:16;;;;;;;4.72;2.10;;;;;;;19.75;49.03;98729.66;4487330;32;20116;-77
2021/12/31 09:26:43;;;;;;;4.20;1.75;;;;;;;19.47;50.25;98732.50;4487126;32;20092;-77
2021/12/31 09:29:10;;;;;;;4.47;2.00;;;;;;;19.61;49.58;98740.25;4487341;32;20097;-77
2021/12/31 09:31:37;;;;;;;5.55;2.35;;;;;;;20.16;48.18;98742.47;4487334;32;20489;-78
2021/12/31 09:34:03;;;;;;;4.32;1.60;;;;;;;20.86;46.69;98727.87;4486962;32;20125;-77
2021/12/31 09:36:30;;;;;;;3.80;1.67;;;;;;;20.78;46.23;98726.66;4487342;32;20160;-77
2021/12/31 09:38:57;;;;;;;3.55;1.40;;;;;;;20.75;46.29;98724.28;4487135;32;20597;-77
2021/12/31 09:41:24;;;;;;;3.08;1.50;;;;;;;20.97;45.94;98741.03;4486917;32;20080;-77
2021/12/31 09:43:51;;;;;;;3.53;1.52;;;;;;;21.18;45.12;98722.88;4487243;32;20132;-77
2021/12/31 09:46:19;;;;;;;4.70;1.67;;;;;;;20.38;47.02;98725.22;4487128;32;20104;-77
2021/12/31 09:48:46;;;;;;;2.90;1.40;;;;;;;21.18;45.74;98730.72;4486622;32;20092;-76
2021/12/31 09:51:14;;;;;;;4.18;1.55;;;;;;;21.70;44.00;98717.12;4487045;32;20139;-77
2021/12/31 09:53:42;;;;;;;2.37;1.25;;;;;;;21.46;44.96;98719.81;4487189;32;20120;-78
2021/12/31 09:56:10;;;;;;;1.98;1.20;;;;;;;20.50;46.85;98717.34;4472363;32;20416;-77
2021/12/31 09:58:37;;;;;;;2.00;1.20;;;;;;;20.84;45.34;98714.88;4486758;32;20163;-77
2021/12/31 10:01:07;;;;;;;4.90;1.30;;;;;;;20.76;45.87;98717.25;4487023;32;20155;-78
2021/12/31 10:03:36;;;;;;;2.90;1.30;;;;;;;20.65;46.48;98717.19;4486848;32;20145;-78
2021/12/31 10:06:10;;;;;;;3.00;1.40;;;;;;;21.47;44.30;98713.63;4487243;32;20104;-78
2021/12/31 10:08:47;;;;;;;3.78;1.45;;;;;;;21.01;45.51;98709.22;4488494;32;20088;-78
2021/12/31 10:11:22;;;;;;;2.78;1.40;;;;;;;21.26;44.34;98700.34;4488802;32;20076;-77
2021/12/31 10:13:52;;;;;;;2.42;1.30;;;;;;;21.56;44.84;98698.94;4474714;32;20144;-78
2021/12/31 10:16:30;;;;;;;2.22;1.15;;;;;;;21.58;44.30;98702.28;4488309;32;20152;-77
2021/12/31 10:19:09;;;;;;;4.70;1.60;;;;;;;21.57;44.02;98703.25;4488632;32;20137;-77
2021/12/31 10:21:54;;;;;;;2.78;1.48;;;;;;;21.46;44.63;98696.19;4488816;32;20084;-78
2021/12/31 10:24:22;;;;;;;3.85;1.60;;;;;;;21.79;43.29;98702.41;4488418;32;20148;-78
2021/12/31 10:26:50;;;;;;;5.10;1.70;;;;;;;21.71;44.19;98704.81;4488728;32;20104;-78
2021/12/31 10:29:17;;;;;;;3.65;1.40;;;;;;;21.80;43.66;98696.19;4488202;32;20498;-78
2021/12/31 10:31:46;;;;;;;5.50;1.77;;;;;;;21.26;43.52;98689.00;4488786;32;20567;-77
2021/12/31 10:34:31;;;;;;;2.65;1.30;;;;;;;21.72;43.33;98696.81;4488708;32;20126;-77
2021/12/31 10:37:02;;;;;;;4.70;1.37;;;;;;;21.49;44.09;98695.97;4488512;32;20502;-77
2021/12/31 10:39:37;;;;;;;2.47;1.40;;;;;;;20.82;45.55;98698.41;4488402;32;20088;-77
2021/12/31 10:42:07;;;;;;;6.12;2.92;;;;;;;21.18;44.70;98696.63;4488713;32;20143;-77
2021/12/31 10:44:46;;;;;;;8.70;3.40;;;;;;;21.10;46.55;98689.31;4488143;32;20517;-77
2021/12/31 10:47:16;;;;;;;7.18;2.97;;;;;;;20.93;47.88;98698.44;4488712;32;20108;-77
2021/12/31 10:50:02;;;;;;;6.12;2.58;;;;;;;21.43;46.54;98692.97;4488446;32;20092;-77
2021/12/31 10:55:49;;;;;;;2.65;1.02;;;;;;;21.90;44.46;98681.38;4478095;32;20554;-77
2021/12/31 10:58:22;;;;;;;2.75;1.00;;;;;;;21.24;43.13;98683.00;4487945;32;20160;-77
2021/12/31 11:00:48;;;;;;;1.20;0.80;;;;;;;21.39;43.15;98688.94;4488476;32;20099;-77
2021/12/31 11:03:17;;;;;;;1.75;0.90;;;;;;;21.22;42.78;98690.16;4488404;32;20103;-77
2021/12/31 11:05:45;;;;;;;2.12;1.08;;;;;;;21.17;42.31;98682.66;4487897;32;20152;-77
2021/12/31 11:08:13;;;;;;;2.12;1.20;;;;;;;21.17;42.78;98679.22;4488231;32;20155;-78
2021/12/31 11:10:41;;;;;;;2.30;0.98;;;;;;;21.07;42.11;98676.44;4488445;32;20086;-78
2021/12/31 11:13:16;;;;;;;2.10;1.00;;;;;;;20.94;42.18;98673.03;4473717;32;20100;-78
2021/12/31 11:15:44;;;;;;;1.60;0.85;;;;;;;21.52;41.07;98676.53;4474316;32;20123;-78
2021/12/31 11:18:13;;;;;;;1.60;1.00;;;;;;;21.03;41.97;98670.56;4487836;32;20164;-78
2021/12/31 11:20:40;;;;;;;2.65;1.17;;;;;;;20.88;42.35;98665.66;4473910;32;20084;-78
2021/12/31 11:23:08;;;;;;;1.67;1.00;;;;;;;20.61;43.24;98663.28;4488322;32;20107;-78
2021/12/31 11:25:56;;;;;;;2.47;1.10;;;;;;;20.54;43.15;98659.47;4474883;32;20111;-78
2021/12/31 11:28:28;;;;;;;1.70;0.90;;;;;;;21.05;43.10;98668.69;4488198;32;20540;-78
2021/12/31 11:30:56;;;;;;;1.87;1.00;;;;;;;20.73;42.46;98657.97;4488145;32;20288;-78
2021/12/31 11:33:28;;;;;;;1.73;0.95;;;;;;;20.37;42.90;98643.16;4487877;32;20096;-77
2021/12/31 11:36:05;;;;;;;2.42;1.05;;;;;;;19.75;44.26;98635.41;4488482;32;20104;-78
2021/12/31 11:38:32;;;;;;;2.20;0.90;;;;;;;20.21;43.32;98625.09;4488682;32;20152;-78
2021/12/31 11:41:08;;;;;;;3.42;1.25;;;;;;;20.92;42.78;98632.97;4488219;32;20463;-77
2021/12/31 11:43:38;;;;;;;3.53;1.10;;;;;;;21.41;41.25;98621.41;4488599;32;20116;-77